Time;durP1;ratioP1;P1;durP2;ratioP2;P2;SDS_P1;SDS_P2;PMS_P1;PMS_P2;Temp;Humidity;BMP_temperature;BMP_pressure;BME280_temperature;BME280_humidity;BME280_pressure;Samples;Min_cycle;Max_cycle;Signal;HPM_P1;HPM_P2
2023/09/13 00:01:17;;;;;;;20.80;15.20;;;;;;;-128.00;-1.00;-1.00;101066;316;1003427;-31
2023/09/13 00:03:42;;;;;;;16.20;12.30;;;;;;;-128.00;-1.00;-1.00;101121;316;1002962;-30
2023/09/13 00:06:08;;;;;;;23.30;10.10;;;;;;;-128.00;-1.00;-1.00;100960;316;1003386;-30
2023/09/13 00:08:33;;;;;;;15.50;10.90;;;;;;;-128.00;-1.00;-1.00;101001;316;1004332;-35
2023/09/13 00:11:05;;;;;;;9.70;8.00;;;;;;;-128.00;-1.00;-1.00;101044;316;1002568;-35
2023/09/13 00:13:32;;;;;;;12.30;10.60;;;;;;;-128.00;-1.00;-1.00;100981;316;1003075;-34
2023/09/13 00:15:58;;;;;;;13.50;10.40;;;;;;;-128.00;-1.00;-1.00;101002;316;1003361;-30
2023/09/13 00:18:23;;;;;;;19.20;12.80;;;;;;;-128.00;-1.00;-1.00;100907;318;1003274;-31
2023/09/13 00:20:53;;;;;;;15.70;12.50;;;;;;;-128.00;-1.00;-1.00;101003;316;1002968;-31
2023/09/13 00:23:19;;;;;;;19.70;14.40;;;;;;;-128.00;-1.00;-1.00;101044;316;1005440;-29
2023/09/13 00:25:44;;;;;;;16.50;11.20;;;;;;;-128.00;-1.00;-1.00;101029;317;1003210;-31
2023/09/13 00:28:10;;;;;;;10.00;8.00;;;;;;;-128.00;-1.00;-1.00;101106;316;1003554;-35
2023/09/13 00:30:35;;;;;;;18.50;13.60;;;;;;;-128.00;-1.00;-1.00;101116;316;1003792;-30
2023/09/13 00:33:02;;;;;;;19.00;9.70;;;;;;;-128.00;-1.00;-1.00;101035;316;1004261;-36
2023/09/13 00:35:28;;;;;;;11.30;9.40;;;;;;;-128.00;-1.00;-1.00;101079;316;1003919;-30
2023/09/13 01:18:05;;;;;;;21.30;17.40;;;;;;;-99.17;17.62;19803.11;101413;315;1576325;-31
2023/09/13 01:20:58;;;;;;;13.70;12.30;;;;;;;-128.00;-1.00;-1.00;99753;315;1202930;-32
2023/09/13 01:23:50;;;;;;;24.20;16.10;;;;;;;-128.00;-1.00;-1.00;30376;315;7504565;-30
2023/09/13 01:26:32;;;;;;;21.40;16.40;;;;;;;-128.00;-1.00;-1.00;19241;315;7504393;-34
2023/09/13 01:28:59;;;;;;;23.10;14.40;;;;;;;-128.00;-1.00;-1.00;19108;315;7504662;-30
2023/09/13 01:31:25;;;;;;;19.30;16.50;;;;;;;-128.00;-1.00;-1.00;19056;316;7506671;-34
2023/09/13 01:33:51;;;;;;;32.40;15.60;;;;;;;-128.00;-1.00;-1.00;19107;318;7504656;-35
2023/09/13 01:36:17;;;;;;;24.40;15.90;;;;;;;-128.00;-1.00;-1.00;19513;315;7504712;-31
2023/09/13 01:38:43;;;;;;;21.50;18.10;;;;;;;-128.00;-1.00;-1.00;19506;315;7505854;-34
2023/09/13 01:41:17;;;;;;;24.00;17.80;;;;;;;-128.00;-1.00;-1.00;19535;315;7504738;-35
2023/09/13 01:43:43;;;;;;;29.40;16.60;;;;;;;-128.00;-1.00;-1.00;19103;315;7504605;-30
2023/09/13 01:46:10;;;;;;;22.10;16.10;;;;;;;-128.00;-1.00;-1.00;19522;315;7505023;-35
2023/09/13 01:48:36;;;;;;;15.40;12.70;;;;;;;-128.00;-1.00;-1.00;19090;320;7505320;-35
2023/09/13 01:51:02;;;;;;;11.80;9.30;;;;;;;-128.00;-1.00;-1.00;19097;320;7504703;-30
2023/09/13 01:53:28;;;;;;;12.10;10.60;;;;;;;-128.00;-1.00;-1.00;19110;315;7505113;-33
2023/09/13 01:55:54;;;;;;;17.70;14.70;;;;;;;-128.00;-1.00;-1.00;19086;320;7504534;-33
2023/09/13 01:58:20;;;;;;;16.60;14.10;;;;;;;-128.00;-1.00;-1.00;19101;320;7504831;-31
2023/09/13 02:00:46;;;;;;;18.70;16.20;;;;;;;-128.00;-1.00;-1.00;19055;315;7506547;-31
2023/09/13 02:03:12;;;;;;;21.60;15.60;;;;;;;-128.00;-1.00;-1.00;19081;315;7504804;-31
2023/09/13 02:05:38;;;;;;;23.50;15.90;;;;;;;-128.00;-1.00;-1.00;19100;320;7504859;-36
2023/09/13 02:08:04;;;;;;;22.70;18.00;;;;;;;-128.00;-1.00;-1.00;19097;318;7504766;-35
2023/09/13 02:10:30;;;;;;;18.70;15.00;;;;;;;-128.00;-1.00;-1.00;19091;320;7506085;-32
2023/09/13 02:12:58;;;;;;;24.70;16.30;;;;;;;-128.00;-1.00;-1.00;19076;315;7504383;-31
2023/09/13 02:15:23;;;;;;;23.60;18.20;;;;;;;-128.00;-1.00;-1.00;19100;315;7504906;-36
2023/09/13 02:17:49;;;;;;;21.20;16.70;;;;;;;-128.00;-1.00;-1.00;19103;320;7506727;-36
2023/09/13 02:20:15;;;;;;;22.60;16.70;;;;;;;-128.00;-1.00;-1.00;19087;315;7506523;-36
2023/09/13 02:22:41;;;;;;;26.30;17.30;;;;;;;-128.00;-1.00;-1.00;19063;319;7504820;-31
2023/09/13 02:25:07;;;;;;;25.20;19.00;;;;;;;-128.00;-1.00;-1.00;19102;320;7504906;-36
2023/09/13 02:27:34;;;;;;;26.60;18.30;;;;;;;-128.00;-1.00;-1.00;19089;320;7506015;-32
2023/09/13 02:30:04;;;;;;;20.60;15.20;;;;;;;-128.00;-1.00;-1.00;19083;315;7505100;-32
2023/09/13 02:32:30;;;;;;;19.60;15.60;;;;;;;-128.00;-1.00;-1.00;19075;320;7504901;-35
2023/09/13 02:34:56;;;;;;;24.00;18.40;;;;;;;-128.00;-1.00;-1.00;19079;315;7505929;-34
2023/09/13 02:37:22;;;;;;;25.10;16.90;;;;;;;-128.00;-1.00;-1.00;19072;315;7504705;-34
2023/09/13 02:39:48;;;;;;;22.40;15.90;;;;;;;-128.00;-1.00;-1.00;19073;320;7505303;-34
2023/09/13 02:42:14;;;;;;;21.60;17.80;;;;;;;-128.00;-1.00;-1.00;19082;320;7505152;-31
2023/09/13 02:44:40;;;;;;;22.30;16.60;;;;;;;-128.00;-1.00;-1.00;19072;316;7505244;-34
2023/09/13 02:47:06;;;;;;;37.00;20.70;;;;;;;-128.00;-1.00;-1.00;19067;316;7504350;-36
2023/09/13 02:49:32;;;;;;;21.60;17.90;;;;;;;-128.00;-1.00;-1.00;19081;316;7506278;-36
2023/09/13 02:51:57;;;;;;;18.80;15.80;;;;;;;-128.00;-1.00;-1.00;19078;315;7506197;-36
2023/09/13 02:54:23;;;;;;;29.10;18.70;;;;;;;-128.00;-1.00;-1.00;19483;320;7505988;-32
2023/09/13 02:56:55;;;;;;;25.10;16.30;;;;;;;-128.00;-1.00;-1.00;20958;320;7506343;-32
2023/09/13 02:59:20;;;;;;;20.40;17.60;;;;;;;-128.00;-1.00;-1.00;19071;316;7505907;-36
2023/09/13 03:01:47;;;;;;;23.40;19.10;;;;;;;-128.00;-1.00;-1.00;19085;320;7506391;-36
2023/09/13 03:04:13;;;;;;;23.50;17.70;;;;;;;-128.00;-1.00;-1.00;19092;316;7506598;-32
2023/09/13 03:06:39;;;;;;;30.30;18.70;;;;;;;-128.00;-1.00;-1.00;19484;315;7505330;-35
2023/09/13 03:09:07;;;;;;;23.40;18.80;;;;;;;-128.00;-1.00;-1.00;22395;320;7504792;-35
2023/09/13 03:11:35;;;;;;;27.20;20.20;;;;;;;-128.00;-1.00;-1.00;19520;316;7506048;-35
2023/09/13 03:14:01;;;;;;;21.60;16.50;;;;;;;-128.00;-1.00;-1.00;19183;316;7504576;-31
2023/09/13 03:16:26;;;;;;;29.40;19.20;;;;;;;-128.00;-1.00;-1.00;19073;315;7506716;-31
2023/09/13 03:18:52;;;;;;;19.80;16.10;;;;;;;-128.00;-1.00;-1.00;19062;316;7506691;-35
2023/09/13 03:21:18;;;;;;;15.40;13.80;;;;;;;-128.00;-1.00;-1.00;19068;315;7505827;-31
2023/09/13 03:23:45;;;;;;;21.40;15.40;;;;;;;-128.00;-1.00;-1.00;19072;315;7504371;-35
2023/09/13 03:26:13;;;;;;;24.10;17.50;;;;;;;-128.00;-1.00;-1.00;19087;319;7506076;-35
2023/09/13 03:28:38;;;;;;;24.20;16.70;;;;;;;-128.00;-1.00;-1.00;19059;315;7506211;-35
2023/09/13 03:31:11;;;;;;;19.50;16.80;;;;;;;-128.00;-1.00;-1.00;19080;315;7504717;-31
2023/09/13 03:33:39;;;;;;;25.60;18.20;;;;;;;-128.00;-1.00;-1.00;19082;320;7504294;-31
2023/09/13 03:36:06;;;;;;;17.80;15.40;;;;;;;-128.00;-1.00;-1.00;19086;320;7504648;-35
2023/09/13 03:38:32;;;;;;;31.50;17.00;;;;;;;-128.00;-1.00;-1.00;19069;320;7504692;-35
2023/09/13 03:40:58;;;;;;;21.90;17.10;;;;;;;-128.00;-1.00;-1.00;19487;320;7504919;-36
2023/09/13 03:43:24;;;;;;;25.20;19.20;;;;;;;-128.00;-1.00;-1.00;19504;316;7504654;-31
2023/09/13 03:45:50;;;;;;;28.30;19.00;;;;;;;-128.00;-1.00;-1.00;19503;315;7504841;-35
2023/09/13 03:48:16;;;;;;;24.50;18.80;;;;;;;-128.00;-1.00;-1.00;19504;315;7504751;-30
2023/09/13 03:50:44;;;;;;;28.30;20.30;;;;;;;-128.00;-1.00;-1.00;20203;320;7506312;-31
2023/09/13 03:53:10;;;;;;;26.20;19.70;;;;;;;-128.00;-1.00;-1.00;19503;316;7504994;-30
2023/09/13 03:55:36;;;;;;;25.60;19.80;;;;;;;-128.00;-1.00;-1.00;19497;316;7505589;-30
2023/09/13 03:58:03;;;;;;;26.80;18.20;;;;;;;-128.00;-1.00;-1.00;19595;316;7505243;-34
2023/09/13 04:00:28;;;;;;;21.70;18.60;;;;;;;-128.00;-1.00;-1.00;21180;320;7505081;-31
2023/09/13 04:02:54;;;;;;;30.20;19.80;;;;;;;-128.00;-1.00;-1.00;23201;320;7504342;-30
2023/09/13 04:05:20;;;;;;;32.00;19.80;;;;;;;-128.00;-1.00;-1.00;57552;315;4499577;-31
2023/09/13 04:07:47;;;;;;;26.70;20.20;;;;;;;-128.00;-1.00;-1.00;20411;315;7504517;-35
2023/09/13 04:10:13;;;;;;;24.60;20.30;;;;;;;-128.00;-1.00;-1.00;19663;319;7504509;-35
2023/09/13 04:12:40;;;;;;;24.90;19.00;;;;;;;-128.00;-1.00;-1.00;20350;316;7505239;-36
2023/09/13 04:15:07;;;;;;;29.90;21.20;;;;;;;-128.00;-1.00;-1.00;19495;315;7504691;-32
2023/09/13 04:17:33;;;;;;;28.70;21.10;;;;;;;-128.00;-1.00;-1.00;19075;316;7506265;-31
2023/09/13 04:19:58;;;;;;;37.60;20.40;;;;;;;-128.00;-1.00;-1.00;19075;320;7504653;-31
2023/09/13 04:22:24;;;;;;;27.20;19.80;;;;;;;-128.00;-1.00;-1.00;19519;320;7505252;-35
2023/09/13 04:24:51;;;;;;;32.90;23.00;;;;;;;-128.00;-1.00;-1.00;19503;315;7505969;-33
2023/09/13 04:27:21;;;;;;;29.70;20.70;;;;;;;-128.00;-1.00;-1.00;19487;320;7505049;-35
2023/09/13 04:29:47;;;;;;;32.20;21.10;;;;;;;-128.00;-1.00;-1.00;19080;319;7506165;-31
2023/09/13 04:32:13;;;;;;;23.90;20.40;;;;;;;-128.00;-1.00;-1.00;19077;320;7505266;-35
2023/09/13 04:34:39;;;;;;;24.50;19.40;;;;;;;-128.00;-1.00;-1.00;19083;315;7506748;-31
2023/09/13 04:37:05;;;;;;;31.90;22.80;;;;;;;-128.00;-1.00;-1.00;19484;316;7504995;-31
2023/09/13 04:39:31;;;;;;;37.10;19.60;;;;;;;-128.00;-1.00;-1.00;19090;315;7505014;-35
2023/09/13 04:41:58;;;;;;;30.40;20.30;;;;;;;-128.00;-1.00;-1.00;19076;320;7504363;-31
2023/09/13 04:44:24;;;;;;;22.90;19.00;;;;;;;-128.00;-1.00;-1.00;19077;316;7504448;-34
2023/09/13 04:46:50;;;;;;;22.30;18.60;;;;;;;-128.00;-1.00;-1.00;19075;316;7504824;-31
2023/09/13 04:49:16;;;;;;;21.10;16.80;;;;;;;-128.00;-1.00;-1.00;19090;316;7504754;-37
2023/09/13 04:51:41;;;;;;;26.20;18.40;;;;;;;-128.00;-1.00;-1.00;19066;320;7505077;-31
2023/09/13 04:54:07;;;;;;;29.00;20.20;;;;;;;-128.00;-1.00;-1.00;19490;319;7506684;-32
2023/09/13 04:56:34;;;;;;;27.80;21.30;;;;;;;-128.00;-1.00;-1.00;19504;316;7505683;-31
2023/09/13 04:59:00;;;;;;;30.80;19.40;;;;;;;-128.00;-1.00;-1.00;19493;320;7504688;-36
2023/09/13 05:01:26;;;;;;;24.70;17.90;;;;;;;-128.00;-1.00;-1.00;19489;320;7505447;-36
2023/09/13 05:03:52;;;;;;;28.50;17.90;;;;;;;-128.00;-1.00;-1.00;19507;316;7504899;-34
2023/09/13 05:06:18;;;;;;;21.50;16.30;;;;;;;-128.00;-1.00;-1.00;19082;320;7505476;-36
2023/09/13 05:08:44;;;;;;;31.10;16.50;;;;;;;-128.00;-1.00;-1.00;19076;316;7505069;-34
2023/09/13 05:11:10;;;;;;;24.20;18.10;;;;;;;-128.00;-1.00;-1.00;19068;315;7506370;-32
2023/09/13 05:13:39;;;;;;;28.70;16.00;;;;;;;-128.00;-1.00;-1.00;19062;316;7504907;-35
2023/09/13 05:16:05;;;;;;;22.60;15.30;;;;;;;-128.00;-1.00;-1.00;19055;315;7507798;-31
2023/09/13 05:18:31;;;;;;;19.00;14.20;;;;;;;-128.00;-1.00;-1.00;19066;320;7505274;-31
2023/09/13 05:20:56;;;;;;;25.10;17.10;;;;;;;-128.00;-1.00;-1.00;19077;316;7506645;-35
2023/09/13 05:23:22;;;;;;;16.80;13.80;;;;;;;-128.00;-1.00;-1.00;19068;320;7504949;-32
2023/09/13 05:25:49;;;;;;;17.40;14.40;;;;;;;-128.00;-1.00;-1.00;19008;320;7506272;-32
2023/09/13 05:28:15;;;;;;;20.10;15.10;;;;;;;-128.00;-1.00;-1.00;19095;315;7505987;-36
2023/09/13 05:30:42;;;;;;;20.90;15.30;;;;;;;-128.00;-1.00;-1.00;19071;315;7505011;-31
2023/09/13 05:33:08;;;;;;;15.70;13.40;;;;;;;-128.00;-1.00;-1.00;19083;320;7505257;-37
2023/09/13 05:35:34;;;;;;;20.20;14.10;;;;;;;-128.00;-1.00;-1.00;19082;316;7504829;-35
2023/09/13 05:37:59;;;;;;;17.10;15.30;;;;;;;-128.00;-1.00;-1.00;19081;316;7506115;-32
2023/09/13 05:40:30;;;;;;;33.40;17.20;;;;;;;-128.00;-1.00;-1.00;19060;319;7506108;-32
2023/09/13 05:42:56;;;;;;;19.50;15.50;;;;;;;-128.00;-1.00;-1.00;19077;315;7504715;-36
2023/09/13 05:45:23;;;;;;;21.70;17.40;;;;;;;-128.00;-1.00;-1.00;19072;319;7505104;-32
2023/09/13 05:47:49;;;;;;;19.70;15.10;;;;;;;-128.00;-1.00;-1.00;19067;316;7506684;-36
2023/09/13 05:50:16;;;;;;;22.30;15.90;;;;;;;-128.00;-1.00;-1.00;19065;316;7504774;-35
2023/09/13 05:52:41;;;;;;;28.20;18.20;;;;;;;-128.00;-1.00;-1.00;19017;320;7504683;-35
2023/09/13 05:55:08;;;;;;;18.10;16.00;;;;;;;-128.00;-1.00;-1.00;19084;320;7504998;-31
2023/09/13 05:57:33;;;;;;;21.50;16.40;;;;;;;-128.00;-1.00;-1.00;19050;320;7504836;-32
2023/09/13 05:59:59;;;;;;;29.80;19.40;;;;;;;-128.00;-1.00;-1.00;19502;320;7506227;-35
2023/09/13 06:02:25;;;;;;;24.60;17.30;;;;;;;-128.00;-1.00;-1.00;19509;316;7504950;-35
2023/09/13 06:04:52;;;;;;;24.30;19.00;;;;;;;-128.00;-1.00;-1.00;19499;315;7505502;-32
2023/09/13 06:07:18;;;;;;;22.30;15.80;;;;;;;-128.00;-1.00;-1.00;20958;315;7505433;-35
2023/09/13 06:09:45;;;;;;;32.80;16.50;;;;;;;-128.00;-1.00;-1.00;19496;315;7505346;-36
2023/09/13 06:12:10;;;;;;;28.30;13.70;;;;;;;-128.00;-1.00;-1.00;19085;315;7504592;-31
2023/09/13 06:14:36;;;;;;;18.30;13.70;;;;;;;-128.00;-1.00;-1.00;19491;315;7505584;-36
2023/09/13 06:17:03;;;;;;;16.50;13.90;;;;;;;-128.00;-1.00;-1.00;19482;320;7505212;-32
2023/09/13 06:19:29;;;;;;;17.20;14.00;;;;;;;-128.00;-1.00;-1.00;19456;317;7505099;-35
2023/09/13 06:21:55;;;;;;;19.70;13.90;;;;;;;-128.00;-1.00;-1.00;19494;315;7505136;-36
2023/09/13 06:24:24;;;;;;;20.30;12.60;;;;;;;-128.00;-1.00;-1.00;19079;315;7504853;-36
2023/09/13 06:26:50;;;;;;;15.20;10.70;;;;;;;-128.00;-1.00;-1.00;19057;319;7506576;-36
2023/09/13 06:29:15;;;;;;;32.10;12.50;;;;;;;-128.00;-1.00;-1.00;19056;322;7504873;-35
2023/09/13 06:31:41;;;;;;;12.20;10.80;;;;;;;-128.00;-1.00;-1.00;19076;320;7505036;-35
2023/09/13 06:34:07;;;;;;;17.20;11.50;;;;;;;-128.00;-1.00;-1.00;19495;320;7505703;-31
2023/09/13 06:36:33;;;;;;;20.90;12.50;;;;;;;-128.00;-1.00;-1.00;19493;316;7505220;-35
2023/09/13 06:38:59;;;;;;;13.70;10.20;;;;;;;-128.00;-1.00;-1.00;19068;316;7505942;-32
2023/09/13 06:41:25;;;;;;;15.00;11.20;;;;;;;-128.00;-1.00;-1.00;19057;315;7505998;-35
2023/09/13 06:43:51;;;;;;;27.00;11.70;;;;;;;-128.00;-1.00;-1.00;19487;319;7505246;-33
2023/09/13 06:46:17;;;;;;;13.60;11.40;;;;;;;-128.00;-1.00;-1.00;19501;320;7504429;-32
2023/09/13 06:48:43;;;;;;;19.30;10.70;;;;;;;-128.00;-1.00;-1.00;19499;315;7504385;-35
2023/09/13 06:51:09;;;;;;;15.00;11.10;;;;;;;-128.00;-1.00;-1.00;19490;319;7504501;-32
2023/09/13 06:53:36;;;;;;;21.30;11.10;;;;;;;-128.00;-1.00;-1.00;19498;315;7505284;-35
2023/09/13 06:56:03;;;;;;;12.00;9.70;;;;;;;-128.00;-1.00;-1.00;19496;316;7506016;-31
2023/09/13 06:58:29;;;;;;;10.10;8.00;;;;;;;-128.00;-1.00;-1.00;19073;315;7506531;-35
2023/09/13 07:00:54;;;;;;;10.90;9.90;;;;;;;-128.00;-1.00;-1.00;19069;320;7504809;-35
2023/09/13 07:03:21;;;;;;;12.40;10.70;;;;;;;-128.00;-1.00;-1.00;19503;315;7504651;-34
2023/09/13 07:05:50;;;;;;;17.50;9.40;;;;;;;-128.00;-1.00;-1.00;19446;318;7504672;-35
2023/09/13 07:08:15;;;;;;;15.10;9.90;;;;;;;-128.00;-1.00;-1.00;19079;320;7505263;-35
2023/09/13 07:10:41;;;;;;;14.00;9.00;;;;;;;-128.00;-1.00;-1.00;19060;315;7505285;-35
2023/09/13 07:13:07;;;;;;;9.80;8.80;;;;;;;-128.00;-1.00;-1.00;19052;315;7505209;-31
2023/09/13 07:15:34;;;;;;;21.90;10.00;;;;;;;-128.00;-1.00;-1.00;19493;316;7506047;-33
2023/09/13 07:17:59;;;;;;;10.90;9.80;;;;;;;-128.00;-1.00;-1.00;19092;320;7504917;-32
2023/09/13 07:20:25;;;;;;;10.10;9.10;;;;;;;-128.00;-1.00;-1.00;19066;316;7506074;-36
2023/09/13 07:22:51;;;;;;;9.90;8.90;;;;;;;-128.00;-1.00;-1.00;19085;316;7505011;-35
2023/09/13 07:25:19;;;;;;;12.00;8.90;;;;;;;-128.00;-1.00;-1.00;19492;320;7505091;-32
2023/09/13 07:27:45;;;;;;;14.00;8.90;;;;;;;-128.00;-1.00;-1.00;19508;315;7504733;-36
2023/09/13 07:30:12;;;;;;;19.80;9.80;;;;;;;-128.00;-1.00;-1.00;19504;315;7505036;-35
2023/09/13 07:32:38;;;;;;;17.00;10.10;;;;;;;-128.00;-1.00;-1.00;19505;315;7505563;-36
2023/09/13 07:35:04;;;;;;;15.30;9.10;;;;;;;-128.00;-1.00;-1.00;19489;315;7506083;-32
2023/09/13 07:37:33;;;;;;;9.50;8.60;;;;;;;-128.00;-1.00;-1.00;20902;320;7504903;-32
2023/09/13 07:39:59;;;;;;;15.50;8.10;;;;;;;-128.00;-1.00;-1.00;22785;315;7504843;-32
2023/09/13 07:42:24;;;;;;;13.30;8.10;;;;;;;-128.00;-1.00;-1.00;19067;316;7504739;-36
2023/09/13 07:44:50;;;;;;;16.30;9.90;;;;;;;-128.00;-1.00;-1.00;19488;316;7504419;-36
2023/09/13 07:47:16;;;;;;;10.20;7.90;;;;;;;-128.00;-1.00;-1.00;46525;319;7504997;-31
2023/09/13 07:49:41;;;;;;;7.90;7.20;;;;;;;-128.00;-1.00;-1.00;100972;315;1004018;-32
2023/09/13 07:52:07;;;;;;;3.80;3.50;;;;;;;-128.00;-1.00;-1.00;101057;315;1005366;-33
2023/09/13 07:54:33;;;;;;;7.30;6.70;;;;;;;-128.00;-1.00;-1.00;101128;315;1003697;-34
2023/09/13 07:56:58;;;;;;;14.40;9.30;;;;;;;-128.00;-1.00;-1.00;101086;315;1003850;-33
2023/09/13 07:59:25;;;;;;;11.40;7.30;;;;;;;-128.00;-1.00;-1.00;101134;315;1003993;-37
2023/09/13 08:01:51;;;;;;;7.00;5.30;;;;;;;-128.00;-1.00;-1.00;101096;315;1002893;-37
2023/09/13 08:04:18;;;;;;;14.40;7.80;;;;;;;-128.00;-1.00;-1.00;101100;315;1004506;-35
2023/09/13 08:06:44;;;;;;;13.30;8.90;;;;;;;-128.00;-1.00;-1.00;101060;315;1003281;-31
2023/09/13 08:09:14;;;;;;;7.40;6.80;;;;;;;-128.00;-1.00;-1.00;101083;315;1003593;-35
2023/09/13 08:11:39;;;;;;;8.20;7.40;;;;;;;-128.00;-1.00;-1.00;101083;316;1003618;-36
2023/09/13 08:14:05;;;;;;;17.00;7.90;;;;;;;-128.00;-1.00;-1.00;101094;315;1003316;-31
2023/09/13 08:16:30;;;;;;;11.10;6.90;;;;;;;-128.00;-1.00;-1.00;101057;315;1003569;-34
2023/09/13 08:18:56;;;;;;;7.80;6.80;;;;;;;-128.00;-1.00;-1.00;101102;316;1003807;-32
2023/09/13 08:21:22;;;;;;;16.10;6.10;;;;;;;-128.00;-1.00;-1.00;101068;315;1002684;-31
2023/09/13 08:23:47;;;;;;;5.70;5.00;;;;;;;-128.00;-1.00;-1.00;101086;315;1003313;-35
2023/09/13 08:26:13;;;;;;;9.10;7.00;;;;;;;-128.00;-1.00;-1.00;100977;316;1003714;-32
2023/09/13 08:28:39;;;;;;;5.70;4.50;;;;;;;-128.00;-1.00;-1.00;101159;315;1003302;-32
2023/09/13 08:31:04;;;;;;;6.20;5.40;;;;;;;-128.00;-1.00;-1.00;101187;315;1003164;-32
2023/09/13 08:33:30;;;;;;;9.30;8.40;;;;;;;-128.00;-1.00;-1.00;101085;315;1003204;-32
2023/09/13 08:35:56;;;;;;;16.80;6.00;;;;;;;-128.00;-1.00;-1.00;101071;315;1002942;-30
2023/09/13 08:38:21;;;;;;;12.50;3.70;;;;;;;-128.00;-1.00;-1.00;101030;315;1004143;-35
2023/09/13 08:40:48;;;;;;;5.90;4.40;;;;;;;-128.00;-1.00;-1.00;101054;315;1003371;-35
2023/09/13 08:43:14;;;;;;;6.30;5.80;;;;;;;-128.00;-1.00;-1.00;101071;315;1004021;-32
2023/09/13 08:45:40;;;;;;;4.80;4.30;;;;;;;-128.00;-1.00;-1.00;101097;315;1003217;-32
2023/09/13 08:48:06;;;;;;;3.50;3.10;;;;;;;-128.00;-1.00;-1.00;101102;316;1003993;-35
2023/09/13 08:50:34;;;;;;;6.90;5.40;;;;;;;-128.00;-1.00;-1.00;101126;315;1003217;-35
2023/09/13 08:53:01;;;;;;;6.20;5.70;;;;;;;-128.00;-1.00;-1.00;101083;315;1002332;-32
2023/09/13 08:55:27;;;;;;;7.80;6.40;;;;;;;-128.00;-1.00;-1.00;101119;315;1002983;-38
2023/09/13 08:57:53;;;;;;;3.70;3.00;;;;;;;-128.00;-1.00;-1.00;101086;315;1002801;-31
2023/09/13 09:00:19;;;;;;;6.70;6.10;;;;;;;-128.00;-1.00;-1.00;101115;315;1003588;-31
2023/09/13 09:02:44;;;;;;;12.80;5.40;;;;;;;-128.00;-1.00;-1.00;101034;315;1003222;-31
2023/09/13 09:05:11;;;;;;;5.30;4.50;;;;;;;-128.00;-1.00;-1.00;101086;315;1003115;-35
2023/09/13 09:07:37;;;;;;;9.40;6.60;;;;;;;-128.00;-1.00;-1.00;101068;315;1003818;-36
2023/09/13 09:10:11;;;;;;;23.40;5.90;;;;;;;-128.00;-1.00;-1.00;101099;315;1003537;-35
2023/09/13 09:12:45;;;;;;;11.20;4.50;;;;;;;-128.00;-1.00;-1.00;100675;315;1003839;-35
2023/09/13 09:15:10;;;;;;;4.80;3.00;;;;;;;-128.00;-1.00;-1.00;82940;316;7504874;-36
2023/09/13 09:17:37;;;;;;;12.20;6.40;;;;;;;-128.00;-1.00;-1.00;40510;319;7505023;-36
2023/09/13 09:20:02;;;;;;;5.00;3.90;;;;;;;-128.00;-1.00;-1.00;40247;315;7505578;-30
2023/09/13 09:22:29;;;;;;;5.00;4.30;;;;;;;-128.00;-1.00;-1.00;101119;315;1003030;-36
2023/09/13 09:24:57;;;;;;;5.20;4.10;;;;;;;-128.00;-1.00;-1.00;101093;316;1003241;-31
2023/09/13 09:27:22;;;;;;;5.60;3.50;;;;;;;-128.00;-1.00;-1.00;101092;315;1003074;-32
2023/09/13 09:29:49;;;;;;;6.40;5.80;;;;;;;-128.00;-1.00;-1.00;101151;315;1004583;-31
2023/09/13 09:32:14;;;;;;;9.90;5.80;;;;;;;-128.00;-1.00;-1.00;101158;316;1003575;-32
2023/09/13 09:34:40;;;;;;;19.40;5.70;;;;;;;-128.00;-1.00;-1.00;101155;315;1003202;-34
2023/09/13 09:37:07;;;;;;;5.70;5.30;;;;;;;-128.00;-1.00;-1.00;101125;315;1003708;-32
2023/09/13 09:39:40;;;;;;;10.40;4.90;;;;;;;-128.00;-1.00;-1.00;83399;316;7504447;-35
2023/09/13 09:42:06;;;;;;;11.00;7.50;;;;;;;-128.00;-1.00;-1.00;55311;315;7504957;-36
2023/09/13 09:44:31;;;;;;;;;;;;;;;-128.00;-1.00;-1.00;95347;315;7504176;-35
2023/09/13 09:46:57;;;;;;;5.10;3.90;;;;;;;-128.00;-1.00;-1.00;93556;315;3003151;-32
2023/09/13 09:49:24;;;;;;;5.70;5.20;;;;;;;-128.00;-1.00;-1.00;19079;315;7506013;-32
2023/09/13 09:51:50;;;;;;;6.80;6.20;;;;;;;-128.00;-1.00;-1.00;19075;315;7504641;-33
2023/09/13 09:54:15;;;;;;;5.10;4.40;;;;;;;-128.00;-1.00;-1.00;19084;316;7505142;-38
2023/09/13 09:56:42;;;;;;;9.10;5.70;;;;;;;-128.00;-1.00;-1.00;19493;315;7507271;-34
2023/09/13 09:59:08;;;;;;;8.20;6.30;;;;;;;-128.00;-1.00;-1.00;19498;320;7505975;-32
2023/09/13 10:01:37;;;;;;;6.30;4.80;;;;;;;-128.00;-1.00;-1.00;64804;315;7503915;-32
2023/09/13 10:04:09;;;;;;;6.30;5.80;;;;;;;-128.00;-1.00;-1.00;28647;316;7504649;-32
2023/09/13 10:06:36;;;;;;;14.60;6.00;;;;;;;-128.00;-1.00;-1.00;20236;320;7504691;-32
2023/09/13 10:09:04;;;;;;;7.00;5.90;;;;;;;-128.00;-1.00;-1.00;20222;316;7504153;-32
2023/09/13 10:11:29;;;;;;;4.20;3.60;;;;;;;-128.00;-1.00;-1.00;81862;320;7504155;-33
2023/09/13 10:13:55;;;;;;;10.00;6.20;;;;;;;-128.00;-1.00;-1.00;70078;315;7504314;-32
2023/09/13 10:16:26;;;;;;;5.40;4.80;;;;;;;-128.00;-1.00;-1.00;38298;315;7504547;-35
2023/09/13 10:18:52;;;;;;;14.50;3.60;;;;;;;-128.00;-1.00;-1.00;90434;315;7244361;-36
2023/09/13 10:21:26;;;;;;;4.50;4.10;;;;;;;-128.00;-1.00;-1.00;101159;315;1002602;-35
2023/09/13 10:24:01;;;;;;;7.00;3.90;;;;;;;-128.00;-1.00;-1.00;100868;315;1002957;-31
2023/09/13 10:26:26;;;;;;;8.50;4.40;;;;;;;-128.00;-1.00;-1.00;101097;315;1004612;-35
2023/09/13 10:28:54;;;;;;;6.70;5.60;;;;;;;-128.00;-1.00;-1.00;101058;315;1003833;-34
2023/09/13 10:31:21;;;;;;;5.40;4.30;;;;;;;-128.00;-1.00;-1.00;101115;316;1002786;-31
2023/09/13 10:33:51;;;;;;;5.70;4.60;;;;;;;-128.00;-1.00;-1.00;101044;316;1003650;-31
2023/09/13 10:36:23;;;;;;;6.60;4.70;;;;;;;-128.00;-1.00;-1.00;101096;316;1003142;-35
2023/09/13 10:38:52;;;;;;;;;;;;;;;-128.00;-1.00;-1.00;101078;315;1002588;-31
2023/09/13 10:41:17;;;;;;;10.40;4.20;;;;;;;-128.00;-1.00;-1.00;101111;315;1004050;-35
2023/09/13 10:43:44;;;;;;;4.80;4.50;;;;;;;-128.00;-1.00;-1.00;101069;315;1002861;-40
2023/09/13 10:46:10;;;;;;;10.50;4.80;;;;;;;-128.00;-1.00;-1.00;101117;317;1004096;-31
2023/09/13 10:48:39;;;;;;;8.50;6.40;;;;;;;-128.00;-1.00;-1.00;77339;316;7504984;-31
2023/09/13 10:51:05;;;;;;;13.10;6.30;;;;;;;-128.00;-1.00;-1.00;42301;315;7504682;-31
2023/09/13 10:53:32;;;;;;;8.20;6.10;;;;;;;-128.00;-1.00;-1.00;67887;315;4503773;-31
2023/09/13 10:55:58;;;;;;;9.80;6.40;;;;;;;-128.00;-1.00;-1.00;100113;316;1445030;-37
2023/09/13 10:58:23;;;;;;;5.80;4.90;;;;;;;-128.00;-1.00;-1.00;100989;315;1002482;-35
2023/09/13 11:00:57;;;;;;;8.50;7.00;;;;;;;-128.00;-1.00;-1.00;98924;316;3003266;-35
2023/09/13 11:03:22;;;;;;;6.60;4.00;;;;;;;-128.00;-1.00;-1.00;33700;315;7504580;-35
2023/09/13 11:05:49;;;;;;;7.40;5.70;;;;;;;-128.00;-1.00;-1.00;99203;315;2702622;-35
2023/09/13 11:08:31;;;;;;;7.50;6.90;;;;;;;-128.00;-1.00;-1.00;78523;316;3003349;-32
2023/09/13 11:11:17;;;;;;;7.30;6.20;;;;;;;-128.00;-1.00;-1.00;77440;319;5420396;-31
2023/09/13 11:13:52;;;;;;;5.50;5.00;;;;;;;-128.00;-1.00;-1.00;101047;319;1003442;-31
2023/09/13 11:16:18;;;;;;;5.80;4.30;;;;;;;-128.00;-1.00;-1.00;85751;315;7504024;-31
2023/09/13 11:18:51;;;;;;;11.30;5.70;;;;;;;-128.00;-1.00;-1.00;96563;315;3004812;-31
2023/09/13 11:21:44;;;;;;;5.30;4.00;;;;;;;-128.00;-1.00;-1.00;101224;315;1002692;-32
2023/09/13 11:24:10;;;;;;;3.50;2.80;;;;;;;-128.00;-1.00;-1.00;101093;315;1004009;-31
2023/09/13 11:26:44;;;;;;;6.60;4.50;;;;;;;-128.00;-1.00;-1.00;101030;315;1002798;-31
2023/09/13 11:29:26;;;;;;;5.60;5.10;;;;;;;-128.00;-1.00;-1.00;101103;315;1003299;-31
2023/09/13 11:32:04;;;;;;;10.80;3.40;;;;;;;-128.00;-1.00;-1.00;101021;315;1003204;-31
2023/09/13 11:34:34;;;;;;;8.90;4.00;;;;;;;-128.00;-1.00;-1.00;101138;315;1003280;-30
2023/09/13 11:37:01;;;;;;;6.80;5.50;;;;;;;-128.00;-1.00;-1.00;101084;315;1004365;-35
2023/09/13 11:39:27;;;;;;;4.70;3.60;;;;;;;-128.00;-1.00;-1.00;101128;315;1003622;-31
2023/09/13 11:41:55;;;;;;;5.80;4.10;;;;;;;-128.00;-1.00;-1.00;101126;315;1003661;-35
2023/09/13 11:44:22;;;;;;;5.20;4.10;;;;;;;-128.00;-1.00;-1.00;101240;315;1003092;-35
2023/09/13 11:46:49;;;;;;;5.20;4.20;;;;;;;-128.00;-1.00;-1.00;101131;315;1003260;-35
2023/09/13 11:49:20;;;;;;;5.50;5.00;;;;;;;-128.00;-1.00;-1.00;101154;315;1003562;-31
2023/09/13 11:51:58;;;;;;;5.90;5.50;;;;;;;-128.00;-1.00;-1.00;101173;315;1002835;-35
2023/09/13 11:54:25;;;;;;;14.40;6.40;;;;;;;-128.00;-1.00;-1.00;101149;315;1004289;-35
2023/09/13 11:56:56;;;;;;;6.50;5.10;;;;;;;-128.00;-1.00;-1.00;101047;316;1003216;-31
2023/09/13 11:59:24;;;;;;;6.20;4.80;;;;;;;-128.00;-1.00;-1.00;101179;315;1003314;-34
2023/09/13 12:01:50;;;;;;;5.70;4.70;;;;;;;-128.00;-1.00;-1.00;101130;315;1003131;-34